Hovedside
METAR-TAF:

METAR-TAF

Lufthavner :

Bergen lufthavn. Flesland

Bergen, Norge

breddegrad: 60-17N, lengdegrad: 005-14E, høyde over havet: 5 m

Gjeldene værobservasjon

Denne rapporten ble laget for 10 minutter siden, klokken 12:20 UTC
Vind 3 kt fra Sør-sørøst
Temperatur 3°C
Luftfuktighet 87%
Trykk 1006 hPa
Sikt 10 km eller mer
Få skyer i en høyde av 800 ft
Spredte skyer i en høyde av 12000 ft

METAR: ENBR 241220Z 16003KT 9999 FEW008 SCT120 03/01 Q1006 NOSIG RMK WIND 1200FT VRB02KT

Tid: 13:30 (12:30 UTC)

Varsel

Varsel gyldig fra 24. klokken 12 UTC til 25. klokken 12 UTC
Vind 5 kt fra skiftende retning
Sikt 10 km eller mer
Få skyer i en høyde av 1500 ft, Tårnskyer (cumulus).
Spredte skyer i en høyde av 2000 ft
Blir
fra 24. klokken 18 UTC til 24. klokken 20 UTC
Vind 10 kt fra Øst-nordøst

TAF: ENBR 2412/2512 VRB05KT 9999 FEW015TCU SCT020 BECMG 2418/2420 07010KT

Værobservasjoner og værvarsel for over 4000 flyplasser (METAR- og TAF-rapporter).

Tilgjengelige stasjoner er representert av de røde og gule prikkene på kartet.

Hold musepekeren over prikken for å se navnet på stasjonen.

Klikk så for å se værobservasjoner og -varsler.

For å forandre kartet kan du klikke på den grønne knappen med svart kryss for å zoome inn, på den grønne knappen med strek for å zoome ut, eller på de grønne pilene for å se tilstøtende kart.


METAR-TAF: